createdAt,value
2016-11-20T00:00:35.981Z,0
2016-11-20T00:01:36.274Z,0
2016-11-20T00:02:35.005Z,0
2016-11-20T00:03:36.028Z,0
2016-11-20T00:04:35.900Z,0
2016-11-20T00:05:35.338Z,0
2016-11-20T00:06:35.292Z,0
2016-11-20T00:07:35.621Z,0
2016-11-20T00:08:35.624Z,0
2016-11-20T00:09:35.047Z,0
2016-11-20T00:10:35.326Z,0
2016-11-20T00:11:35.739Z,0
2016-11-20T00:12:36.697Z,0
2016-11-20T00:13:35.395Z,0
2016-11-20T00:14:35.971Z,0
2016-11-20T00:15:35.683Z,0
2016-11-20T00:16:36.088Z,0
2016-11-20T00:17:35.102Z,0
2016-11-20T00:18:36.016Z,0
2016-11-20T00:19:35.375Z,0
2016-11-20T00:20:35.707Z,0
2016-11-20T00:21:35.760Z,0
2016-11-20T00:22:35.717Z,0
2016-11-20T00:23:36.751Z,0
2016-11-20T00:24:35.830Z,0
2016-11-20T00:25:35.471Z,0
2016-11-20T00:26:36.156Z,0
2016-11-20T00:27:35.751Z,0
2016-11-20T00:28:35.318Z,0
2016-11-20T00:29:35.761Z,0
2016-11-20T00:30:35.912Z,0
2016-11-20T00:31:36.093Z,0
2016-11-20T00:32:36.154Z,0
2016-11-20T00:33:35.527Z,0
2016-11-20T00:34:35.851Z,0
2016-11-20T00:35:35.804Z,0
2016-11-20T00:36:35.513Z,0
2016-11-20T00:37:35.512Z,0
2016-11-20T00:38:35.819Z,0
2016-11-20T00:39:36.147Z,0
2016-11-20T00:40:35.887Z,0
2016-11-20T00:41:36.898Z,0
2016-11-20T00:42:35.901Z,0
2016-11-20T00:43:36.408Z,0
2016-11-20T00:44:36.178Z,0
2016-11-20T00:45:35.920Z,0
2016-11-20T00:46:36.293Z,0
2016-11-20T00:47:35.622Z,0
2016-11-20T00:48:35.978Z,0
2016-11-20T00:49:35.587Z,0
2016-11-20T00:50:35.955Z,0
2016-11-20T00:51:35.961Z,0
2016-11-20T00:52:35.917Z,0
2016-11-20T00:53:36.238Z,0
2016-11-20T00:54:36.969Z,0
2016-11-20T00:55:35.940Z,0
2016-11-20T00:56:36.393Z,0
2016-11-20T00:57:36.314Z,0
2016-11-20T00:58:35.649Z,0
2016-11-20T00:59:36.278Z,0
2016-11-20T01:00:35.683Z,0
2016-11-20T01:01:35.664Z,0
2016-11-20T01:02:35.720Z,0
2016-11-20T01:03:35.699Z,0
2016-11-20T01:04:36.003Z,0
2016-11-20T01:05:37.806Z,0
2016-11-20T01:06:35.700Z,0
2016-11-20T01:07:37.118Z,0
2016-11-20T01:08:36.343Z,0
2016-11-20T01:09:36.032Z,0
2016-11-20T01:10:35.821Z,0
2016-11-20T01:11:36.046Z,0
2016-11-20T01:12:35.744Z,0
2016-11-20T01:13:36.058Z,0
2016-11-20T01:14:36.381Z,0
2016-11-20T01:15:36.432Z,0
2016-11-20T01:16:35.803Z,0
2016-11-20T01:17:36.136Z,0
2016-11-20T01:18:36.096Z,0
2016-11-20T01:19:36.149Z,0
2016-11-20T01:20:35.531Z,0
2016-11-20T01:21:36.426Z,0
2016-11-20T01:22:36.227Z,0
2016-11-20T01:23:35.814Z,0
2016-11-20T01:24:36.135Z,0
2016-11-20T01:25:36.896Z,0
2016-11-20T01:26:36.461Z,0
2016-11-20T01:27:36.254Z,0
2016-11-20T01:28:35.928Z,0
2016-11-20T01:29:36.534Z,0
2016-11-20T01:30:35.865Z,0
2016-11-20T01:31:36.184Z,0
2016-11-20T01:32:36.521Z,0
2016-11-20T01:33:36.557Z,0
2016-11-20T01:34:36.514Z,0
2016-11-20T01:35:36.209Z,0
2016-11-20T01:36:36.789Z,0
2016-11-20T01:37:36.274Z,0
2016-11-20T01:38:36.426Z,0
2016-11-20T01:39:36.234Z,0
2016-11-20T01:40:36.342Z,0
2016-11-20T01:41:36.249Z,0
2016-11-20T01:42:36.354Z,0
2016-11-20T01:43:36.268Z,0
2016-11-20T01:44:36.271Z,0
2016-11-20T01:45:36.012Z,0
2016-11-20T01:46:36.017Z,0
2016-11-20T01:47:37.543Z,0
2016-11-20T01:48:35.674Z,0
2016-11-20T01:49:36.842Z,0
2016-11-20T01:50:36.000Z,0
2016-11-20T01:51:36.317Z,0
2016-11-20T01:52:36.328Z,0
2016-11-20T01:53:36.026Z,0
2016-11-20T01:54:36.392Z,0
2016-11-20T01:55:36.126Z,0
2016-11-20T01:56:36.664Z,0
2016-11-20T01:57:36.358Z,0
2016-11-20T01:58:37.709Z,0
2016-11-20T01:59:35.804Z,0
2016-11-20T02:00:37.411Z,0
2016-11-20T02:01:36.382Z,0
2016-11-20T02:02:36.439Z,0
2016-11-20T02:03:36.089Z,0
2016-11-20T02:04:36.095Z,0
2016-11-20T02:05:36.723Z,0
2016-11-20T02:06:36.420Z,0
2016-11-20T02:07:36.482Z,0
2016-11-20T02:08:36.119Z,0
2016-11-20T02:09:36.540Z,0
2016-11-20T02:10:36.822Z,0
2016-11-20T02:11:36.141Z,0
2016-11-20T02:12:36.458Z,0
2016-11-20T02:13:36.517Z,0
2016-11-20T02:14:36.263Z,0
2016-11-20T02:15:35.909Z,0
2016-11-20T02:16:36.176Z,0
2016-11-20T02:17:36.514Z,0
2016-11-20T02:18:36.604Z,0
2016-11-20T02:19:36.606Z,0
2016-11-20T02:20:36.794Z,0
2016-11-20T02:21:36.627Z,0
2016-11-20T02:22:36.580Z,0
2016-11-20T02:23:35.960Z,0
2016-11-20T02:24:36.331Z,0
2016-11-20T02:25:36.946Z,0
2016-11-20T02:26:36.554Z,0
2016-11-20T02:27:36.597Z,0
2016-11-20T02:28:36.618Z,0
2016-11-20T02:29:36.574Z,0
2016-11-20T02:30:36.371Z,0
2016-11-20T02:31:37.007Z,0
2016-11-20T02:32:36.285Z,0
2016-11-20T02:33:36.607Z,0
2016-11-20T02:34:36.351Z,0
2016-11-20T02:35:36.669Z,0
2016-11-20T02:36:36.606Z,0
2016-11-20T02:37:36.682Z,0
2016-11-20T02:38:36.674Z,0
2016-11-20T02:39:36.650Z,0
2016-11-20T02:40:36.023Z,0
2016-11-20T02:41:37.029Z,0
2016-11-20T02:42:37.576Z,0
2016-11-20T02:43:36.359Z,0
2016-11-20T02:44:36.931Z,0
2016-11-20T02:45:36.996Z,0
2016-11-20T02:46:36.691Z,0
2016-11-20T02:47:37.061Z,0
2016-11-20T02:48:36.445Z,0
2016-11-20T02:49:36.445Z,0
2016-11-20T02:50:36.406Z,0
2016-11-20T02:51:36.780Z,0
2016-11-20T02:52:36.786Z,0
2016-11-20T02:53:38.015Z,0
2016-11-20T02:54:36.434Z,0
2016-11-20T02:55:37.555Z,0
2016-11-20T02:56:37.069Z,0
2016-11-20T02:57:37.077Z,0
2016-11-20T02:58:36.823Z,0
2016-11-20T02:59:36.547Z,0
2016-11-20T03:00:36.554Z,0
2016-11-20T03:01:37.157Z,0
2016-11-20T03:02:36.175Z,0
2016-11-20T03:03:36.232Z,0
2016-11-20T03:04:38.849Z,0
2016-11-20T03:05:36.816Z,0
2016-11-20T03:06:37.886Z,0
2016-11-20T03:07:36.839Z,0
2016-11-20T03:08:36.526Z,0
2016-11-20T03:09:36.892Z,0
2016-11-20T03:10:36.542Z,0
2016-11-20T03:11:37.177Z,0
2016-11-20T03:12:36.865Z,0
2016-11-20T03:13:36.971Z,0
2016-11-20T03:14:37.244Z,0
2016-11-20T03:15:37.236Z,0
2016-11-20T03:16:36.931Z,0
2016-11-20T03:17:36.789Z,0
2016-11-20T03:18:36.332Z,0
2016-11-20T03:19:37.223Z,0
2016-11-20T03:20:36.614Z,0
2016-11-20T03:21:36.926Z,0
2016-11-20T03:22:36.939Z,0
2016-11-20T03:23:36.678Z,0
2016-11-20T03:24:36.994Z,0
2016-11-20T03:25:36.335Z,0
2016-11-20T03:26:37.522Z,0
2016-11-20T03:27:37.328Z,0
2016-11-20T03:28:37.024Z,0
2016-11-20T03:29:36.719Z,0
2016-11-20T03:30:36.985Z,0
2016-11-20T03:31:37.337Z,0
2016-11-20T03:32:36.691Z,0
2016-11-20T03:33:36.798Z,0
2016-11-20T03:34:36.747Z,0
2016-11-20T03:35:36.704Z,0
2016-11-20T03:36:37.028Z,0
2016-11-20T03:37:38.151Z,0
2016-11-20T03:38:37.089Z,0
2016-11-20T03:39:37.597Z,0
2016-11-20T03:40:36.742Z,0
2016-11-20T03:41:36.846Z,0
2016-11-20T03:42:36.444Z,0
2016-11-20T03:43:37.073Z,0
2016-11-20T03:44:37.077Z,0
2016-11-20T03:45:37.139Z,0
2016-11-20T03:46:37.092Z,0
2016-11-20T03:47:37.147Z,0
2016-11-20T03:48:38.911Z,0
2016-11-20T03:49:36.799Z,0
2016-11-20T03:50:38.360Z,0
2016-11-20T03:51:36.818Z,0
2016-11-20T03:52:36.874Z,0
2016-11-20T03:53:36.571Z,0
2016-11-20T03:54:37.151Z,0
2016-11-20T03:55:36.891Z,0
2016-11-20T03:56:36.535Z,0
2016-11-20T03:57:37.365Z,0
2016-11-20T03:58:37.176Z,0
2016-11-20T03:59:37.497Z,0
2016-11-20T04:00:36.872Z,0
2016-11-20T04:01:36.569Z,0
2016-11-20T04:02:37.198Z,0
2016-11-20T04:03:37.254Z,0
2016-11-20T04:04:37.311Z,0
2016-11-20T04:05:36.955Z,0
2016-11-20T04:06:36.913Z,0
2016-11-20T04:07:36.982Z,0
2016-11-20T04:08:37.601Z,0
2016-11-20T04:09:36.725Z,0
2016-11-20T04:10:37.637Z,0
2016-11-20T04:11:37.256Z,0
2016-11-20T04:12:37.626Z,0
2016-11-20T04:13:36.698Z,0
2016-11-20T04:14:37.014Z,0
2016-11-20T04:15:37.284Z,0
2016-11-20T04:16:37.012Z,0
2016-11-20T04:17:37.711Z,0
2016-11-20T04:18:37.303Z,0
2016-11-20T04:19:37.838Z,0
2016-11-20T04:20:37.467Z,0
2016-11-20T04:21:38.428Z,0
2016-11-20T04:22:37.016Z,0
2016-11-20T04:23:37.421Z,0
2016-11-20T04:24:37.080Z,0
2016-11-20T04:25:37.398Z,0
2016-11-20T04:26:37.357Z,0
2016-11-20T04:27:37.381Z,0
2016-11-20T04:28:37.369Z,0
2016-11-20T04:29:36.799Z,0
2016-11-20T04:30:38.357Z,0
2016-11-20T04:31:37.802Z,0
2016-11-20T04:32:38.722Z,0
2016-11-20T04:33:37.410Z,0
2016-11-20T04:34:38.008Z,0
2016-11-20T04:35:37.416Z,0
2016-11-20T04:36:37.524Z,0
2016-11-20T04:37:37.794Z,0
2016-11-20T04:38:37.456Z,0
2016-11-20T04:39:37.441Z,0
2016-11-20T04:40:37.135Z,0
2016-11-20T04:41:37.145Z,0
2016-11-20T04:42:37.593Z,0
2016-11-20T04:43:39.211Z,0
2016-11-20T04:45:06.917Z,0
2016-11-20T04:45:38.153Z,0
2016-11-20T04:46:37.176Z,0
2016-11-20T04:47:37.495Z,0
2016-11-20T04:48:37.511Z,0
2016-11-20T04:49:37.509Z,0
2016-11-20T04:50:37.510Z,0
2016-11-20T04:51:37.524Z,0
2016-11-20T04:52:37.896Z,0
2016-11-20T04:53:37.540Z,0
2016-11-20T04:54:36.954Z,0
2016-11-20T04:55:37.243Z,0
2016-11-20T04:56:36.981Z,0
2016-11-20T04:57:37.559Z,0
2016-11-20T04:58:37.620Z,0
2016-11-20T04:59:37.887Z,0
2016-11-20T05:00:37.629Z,0
2016-11-20T05:01:37.590Z,0
2016-11-20T05:02:37.592Z,0
2016-11-20T05:03:38.133Z,0
2016-11-20T05:04:37.950Z,0
2016-11-20T05:05:37.922Z,0
2016-11-20T05:06:37.406Z,0
2016-11-20T05:07:37.311Z,0
2016-11-20T05:08:37.685Z,0
2016-11-20T05:09:37.623Z,0
2016-11-20T05:10:37.336Z,0
2016-11-20T05:11:37.749Z,0
2016-11-20T05:12:37.398Z,0
2016-11-20T05:13:37.404Z,0
2016-11-20T05:14:38.622Z,0
2016-11-20T05:15:38.039Z,0
2016-11-20T05:16:38.352Z,0
2016-11-20T05:17:37.690Z,0
2016-11-20T05:18:37.716Z,0
2016-11-20T05:19:37.709Z,0
2016-11-20T05:20:37.497Z,0
2016-11-20T05:21:37.713Z,0
2016-11-20T05:22:37.773Z,0
2016-11-20T05:23:37.727Z,0
2016-11-20T05:24:37.744Z,0
2016-11-20T05:25:38.432Z,0
2016-11-20T05:26:37.442Z,0
2016-11-20T05:27:38.735Z,0
2016-11-20T05:28:38.160Z,0
2016-11-20T05:29:38.262Z,0
2016-11-20T05:30:38.087Z,0
2016-11-20T05:31:38.129Z,0
2016-11-20T05:32:37.472Z,0
2016-11-20T05:33:37.510Z,0
2016-11-20T05:34:37.483Z,0
2016-11-20T05:35:37.179Z,0
2016-11-20T05:36:37.553Z,0
2016-11-20T05:37:37.815Z,0
2016-11-20T05:38:39.517Z,0
2016-11-20T05:39:37.879Z,0
2016-11-20T05:40:38.990Z,0
2016-11-20T05:41:37.848Z,0
2016-11-20T05:42:37.540Z,0
2016-11-20T05:43:37.285Z,0
2016-11-20T05:44:37.868Z,0
2016-11-20T05:45:38.235Z,0
2016-11-20T05:46:37.565Z,0
2016-11-20T05:47:38.248Z,0
2016-11-20T05:48:37.631Z,0
2016-11-20T05:49:37.738Z,0
2016-11-20T05:50:37.589Z,0
2016-11-20T05:51:37.598Z,0
2016-11-20T05:52:37.966Z,0
2016-11-20T05:53:37.954Z,0
2016-11-20T05:54:38.033Z,0
2016-11-20T05:55:37.629Z,0
2016-11-20T05:56:38.029Z,0
2016-11-20T05:57:37.945Z,0
2016-11-20T05:58:38.496Z,0
2016-11-20T05:59:37.965Z,0
2016-11-20T06:00:37.985Z,0
2016-11-20T06:01:38.283Z,0
2016-11-20T06:02:37.667Z,0
2016-11-20T06:03:38.297Z,0
2016-11-20T06:04:37.715Z,0
2016-11-20T06:05:38.052Z,0
2016-11-20T06:06:37.749Z,0
2016-11-20T06:07:38.326Z,0
2016-11-20T06:08:38.020Z,0
2016-11-20T06:09:38.973Z,0
2016-11-20T06:10:38.396Z,0
2016-11-20T06:11:38.453Z,0
2016-11-20T06:12:38.363Z,0
2016-11-20T06:13:37.427Z,0
2016-11-20T06:14:37.748Z,0
2016-11-20T06:15:37.550Z,0
2016-11-20T06:16:38.130Z,0
2016-11-20T06:17:38.078Z,0
2016-11-20T06:18:37.776Z,0
2016-11-20T06:19:37.870Z,0
2016-11-20T06:20:39.784Z,0
2016-11-20T06:21:38.432Z,0
2016-11-20T06:22:39.106Z,0
2016-11-20T06:23:38.181Z,0
2016-11-20T06:24:38.186Z,0
2016-11-20T06:25:37.869Z,0
2016-11-20T06:26:37.889Z,0
2016-11-20T06:27:37.885Z,0
2016-11-20T06:28:38.157Z,0
2016-11-20T06:29:38.210Z,0
2016-11-20T06:30:38.166Z,0
2016-11-20T06:31:37.952Z,0
2016-11-20T06:32:37.869Z,0
2016-11-20T06:33:39.813Z,0
2016-11-20T06:34:37.878Z,0
2016-11-20T06:35:38.251Z,0
2016-11-20T06:36:38.519Z,0
2016-11-20T06:37:38.525Z,0
2016-11-20T06:38:37.902Z,0
2016-11-20T06:39:37.604Z,4
2016-11-20T06:40:38.315Z,4
2016-11-20T06:41:38.241Z,4
2016-11-20T06:42:38.714Z,4
2016-11-20T06:43:38.336Z,4
2016-11-20T06:44:38.623Z,0
2016-11-20T06:45:37.957Z,0
2016-11-20T06:46:37.960Z,0
2016-11-20T06:47:38.381Z,4
2016-11-20T06:48:37.668Z,4
2016-11-20T06:49:38.347Z,4
2016-11-20T06:50:38.041Z,4
2016-11-20T06:51:37.995Z,4
2016-11-20T06:52:38.003Z,4
2016-11-20T06:53:39.636Z,4
2016-11-20T06:54:38.378Z,8
2016-11-20T06:55:38.983Z,4
2016-11-20T06:56:38.028Z,4
2016-11-20T06:57:38.037Z,4
2016-11-20T06:58:38.105Z,8
2016-11-20T06:59:38.364Z,8
2016-11-20T07:00:38.366Z,8
2016-11-20T07:01:38.114Z,8
2016-11-20T07:02:37.799Z,8
2016-11-20T07:03:38.489Z,8
2016-11-20T07:04:38.112Z,12
2016-11-20T07:05:38.722Z,16
2016-11-20T07:06:38.971Z,12
2016-11-20T07:07:38.512Z,12
2016-11-20T07:08:38.781Z,16
2016-11-20T07:09:38.172Z,16
2016-11-20T07:10:38.463Z,12
2016-11-20T07:11:38.131Z,12
2016-11-20T07:12:37.871Z,16
2016-11-20T07:13:38.193Z,16
2016-11-20T07:14:38.194Z,12
2016-11-20T07:15:38.153Z,16
2016-11-20T07:16:38.212Z,16
2016-11-20T07:17:39.716Z,20
2016-11-20T07:18:38.536Z,20
2016-11-20T07:19:38.232Z,20
2016-11-20T07:20:38.868Z,24
2016-11-20T07:21:38.190Z,24
2016-11-20T07:22:38.207Z,28
2016-11-20T07:23:38.832Z,32
2016-11-20T07:24:38.529Z,32
2016-11-20T07:25:38.278Z,32
2016-11-20T07:26:38.729Z,36
2016-11-20T07:27:38.551Z,40
2016-11-20T07:28:38.914Z,44
2016-11-20T07:29:38.556Z,44
2016-11-20T07:30:38.615Z,48
2016-11-20T07:31:38.307Z,48
2016-11-20T07:32:38.707Z,48
2016-11-20T07:33:38.272Z,52
2016-11-20T07:34:38.605Z,52
2016-11-20T07:35:39.048Z,56
2016-11-20T07:36:38.918Z,52
2016-11-20T07:37:39.147Z,56
2016-11-20T07:38:38.723Z,56
2016-11-20T07:39:38.989Z,60
2016-11-20T07:40:38.959Z,64
2016-11-20T07:41:38.323Z,68
2016-11-20T07:42:38.647Z,68
2016-11-20T07:43:39.013Z,72
2016-11-20T07:44:38.398Z,76
2016-11-20T07:45:39.033Z,80
2016-11-20T07:46:38.360Z,80
2016-11-20T07:47:38.730Z,80
2016-11-20T07:48:39.835Z,80
2016-11-20T07:49:39.056Z,76
2016-11-20T07:50:39.200Z,76
2016-11-20T07:51:38.493Z,68
2016-11-20T07:52:38.756Z,60
2016-11-20T07:53:38.437Z,56
2016-11-20T07:54:38.461Z,48
2016-11-20T07:55:38.737Z,44
2016-11-20T07:56:38.474Z,40
2016-11-20T07:57:39.039Z,44
2016-11-20T07:58:39.063Z,48
2016-11-20T07:59:40.224Z,56
2016-11-20T08:00:39.172Z,56
2016-11-20T08:01:39.735Z,52
2016-11-20T08:02:38.828Z,44
2016-11-20T08:03:38.781Z,32
2016-11-20T08:04:38.479Z,32
2016-11-20T08:05:38.797Z,36
2016-11-20T08:06:38.803Z,40
2016-11-20T08:07:38.501Z,44
2016-11-20T08:08:38.555Z,52
2016-11-20T08:09:38.299Z,60
2016-11-20T08:10:38.832Z,76
2016-11-20T08:11:39.201Z,80
2016-11-20T08:12:40.293Z,76
2016-11-20T08:13:38.845Z,68
2016-11-20T08:14:38.857Z,64
2016-11-20T08:15:38.906Z,60
2016-11-20T08:16:38.608Z,60
2016-11-20T08:17:38.558Z,60
2016-11-20T08:18:39.182Z,52
2016-11-20T08:19:38.990Z,48
2016-11-20T08:20:38.582Z,48
2016-11-20T08:21:38.981Z,52
2016-11-20T08:22:38.589Z,44
2016-11-20T08:23:40.527Z,44
2016-11-20T08:24:39.233Z,40
2016-11-20T08:25:38.616Z,40
2016-11-20T08:26:38.982Z,52
2016-11-20T08:27:38.989Z,56
2016-11-20T08:28:38.633Z,64
2016-11-20T08:29:38.950Z,72
2016-11-20T08:30:39.871Z,72
2016-11-20T08:31:39.011Z,72
2016-11-20T08:32:39.416Z,68
2016-11-20T08:33:38.764Z,60
2016-11-20T08:34:39.345Z,56
2016-11-20T08:35:39.305Z,56
2016-11-20T08:36:38.421Z,60
2016-11-20T08:37:39.315Z,64
2016-11-20T08:38:39.014Z,68
2016-11-20T08:39:39.333Z,64
2016-11-20T08:40:38.713Z,60
2016-11-20T08:41:40.178Z,52
2016-11-20T08:42:38.776Z,44
2016-11-20T08:43:40.143Z,48
2016-11-20T08:45:08.546Z,44
2016-11-20T08:45:39.618Z,40
2016-11-20T08:46:39.114Z,40
2016-11-20T08:47:39.433Z,40
2016-11-20T08:48:39.486Z,40
2016-11-20T08:49:38.502Z,48
2016-11-20T08:50:39.455Z,56
2016-11-20T08:51:39.409Z,76
2016-11-20T08:52:38.474Z,88
2016-11-20T08:53:39.475Z,96
2016-11-20T08:54:38.801Z,120
2016-11-20T08:55:39.119Z,152
2016-11-20T08:56:40.250Z,204
2016-11-20T08:57:39.192Z,240
2016-11-20T08:58:39.195Z,276
2016-11-20T08:59:39.231Z,300
2016-11-20T09:00:39.165Z,308
2016-11-20T09:01:39.161Z,304
2016-11-20T09:02:38.854Z,324
2016-11-20T09:03:39.237Z,404
2016-11-20T09:04:39.266Z,492
2016-11-20T09:05:38.570Z,648
2016-11-20T09:06:38.981Z,856
2016-11-20T09:07:40.228Z,880
2016-11-20T09:08:39.207Z,796
2016-11-20T09:09:39.216Z,788
2016-11-20T09:10:39.268Z,744
2016-11-20T09:11:39.590Z,712
2016-11-20T09:12:39.282Z,688
2016-11-20T09:13:38.931Z,696
2016-11-20T09:14:39.727Z,640
2016-11-20T09:15:39.567Z,772
2016-11-20T09:16:39.465Z,624
2016-11-20T09:17:39.053Z,640
2016-11-20T09:18:39.325Z,648
2016-11-20T09:19:39.287Z,664
2016-11-20T09:20:39.654Z,708
2016-11-20T09:21:39.031Z,752
2016-11-20T09:22:39.048Z,796
2016-11-20T09:23:39.619Z,892
2016-11-20T09:24:39.312Z,956
2016-11-20T09:25:39.441Z,1016
2016-11-20T09:26:39.383Z,1052
2016-11-20T09:27:41.333Z,1040
2016-11-20T09:28:39.028Z,972
2016-11-20T09:29:40.234Z,964
2016-11-20T09:30:39.777Z,952
2016-11-20T09:31:39.408Z,1024
2016-11-20T09:32:39.511Z,996
2016-11-20T09:33:39.381Z,968
2016-11-20T09:34:39.068Z,984
2016-11-20T09:35:38.809Z,888
2016-11-20T09:36:39.415Z,788
2016-11-20T09:37:39.141Z,796
2016-11-20T09:38:39.407Z,752
2016-11-20T09:39:38.839Z,704
2016-11-20T09:40:39.426Z,728
2016-11-20T09:41:39.162Z,672
2016-11-20T09:42:39.271Z,632
2016-11-20T09:43:39.127Z,520
2016-11-20T09:44:39.501Z,392
2016-11-20T09:45:38.828Z,364
2016-11-20T09:46:39.463Z,408
2016-11-20T09:47:39.752Z,408
2016-11-20T09:48:39.162Z,452
2016-11-20T09:49:39.479Z,600
2016-11-20T09:50:39.486Z,548
2016-11-20T09:51:39.546Z,456
2016-11-20T09:52:39.189Z,400
2016-11-20T09:53:39.511Z,336
2016-11-20T09:54:39.270Z,388
2016-11-20T09:55:39.205Z,508
2016-11-20T09:56:39.275Z,596
2016-11-20T09:57:39.533Z,604
2016-11-20T09:58:40.439Z,768
2016-11-20T09:59:39.543Z,696
2016-11-20T10:00:39.787Z,704
2016-11-20T10:01:39.554Z,628
2016-11-20T10:02:39.564Z,652
2016-11-20T10:03:39.285Z,548
2016-11-20T10:04:39.941Z,508
2016-11-20T10:05:38.967Z,476
2016-11-20T10:06:39.283Z,500
2016-11-20T10:07:39.292Z,552
2016-11-20T10:08:39.291Z,600
2016-11-20T10:09:39.671Z,652
2016-11-20T10:10:39.622Z,824
2016-11-20T10:11:40.929Z,720
2016-11-20T10:12:39.633Z,640
2016-11-20T10:13:39.638Z,584
2016-11-20T10:14:39.336Z,568
2016-11-20T10:15:39.652Z,544
2016-11-20T10:16:39.717Z,604
2016-11-20T10:17:39.358Z,580
2016-11-20T10:18:39.724Z,436
2016-11-20T10:19:39.716Z,556
2016-11-20T10:20:39.424Z,712
2016-11-20T10:21:39.433Z,732
2016-11-20T10:22:39.441Z,680
2016-11-20T10:23:39.757Z,844
2016-11-20T10:24:39.767Z,1064
2016-11-20T10:25:39.459Z,1120
2016-11-20T10:26:39.732Z,1016
2016-11-20T10:27:40.046Z,944
2016-11-20T10:28:39.749Z,804
2016-11-20T10:29:39.120Z,584
2016-11-20T10:30:39.752Z,656
2016-11-20T10:31:40.739Z,736
2016-11-20T10:32:39.771Z,732
2016-11-20T10:33:40.195Z,748
2016-11-20T10:34:39.832Z,784
2016-11-20T10:35:39.528Z,708
2016-11-20T10:36:39.792Z,624
2016-11-20T10:37:39.803Z,584
2016-11-20T10:38:39.806Z,488
2016-11-20T10:39:39.909Z,428
2016-11-20T10:40:39.878Z,372
2016-11-20T10:41:40.260Z,316
2016-11-20T10:42:39.768Z,360
2016-11-20T10:43:39.848Z,420
2016-11-20T10:44:41.784Z,368
2016-11-20T10:45:39.223Z,432
2016-11-20T10:46:40.623Z,580
2016-11-20T10:47:39.867Z,568
2016-11-20T10:48:39.613Z,672
2016-11-20T10:49:39.253Z,700
2016-11-20T10:50:39.999Z,856
2016-11-20T10:51:39.582Z,916
2016-11-20T10:52:39.688Z,948
2016-11-20T10:53:39.740Z,840
2016-11-20T10:54:39.917Z,924
2016-11-20T10:55:41.532Z,1088
2016-11-20T10:56:39.611Z,1256
2016-11-20T10:57:40.712Z,1272
2016-11-20T10:58:39.679Z,1220
2016-11-20T10:59:39.949Z,1156
2016-11-20T11:00:40.003Z,1012
2016-11-20T11:01:39.647Z,1080
2016-11-20T11:02:40.333Z,1032
2016-11-20T11:03:40.286Z,992
2016-11-20T11:04:39.409Z,932
2016-11-20T11:05:39.725Z,916
2016-11-20T11:06:39.468Z,768
2016-11-20T11:07:40.054Z,844
2016-11-20T11:08:40.160Z,772
2016-11-20T11:09:40.043Z,708
2016-11-20T11:10:39.710Z,820
2016-11-20T11:11:40.026Z,872
2016-11-20T11:12:39.463Z,948
2016-11-20T11:13:39.730Z,880
2016-11-20T11:14:39.789Z,892
2016-11-20T11:15:40.105Z,1044
2016-11-20T11:16:39.754Z,928
2016-11-20T11:17:41.170Z,872
2016-11-20T11:18:39.764Z,852
2016-11-20T11:19:40.493Z,884
2016-11-20T11:20:40.086Z,900
2016-11-20T11:21:39.831Z,872
2016-11-20T11:22:40.156Z,732
2016-11-20T11:23:40.165Z,708
2016-11-20T11:24:39.856Z,700
2016-11-20T11:25:40.122Z,788
2016-11-20T11:26:40.181Z,820
2016-11-20T11:27:39.825Z,784
2016-11-20T11:28:40.742Z,688
2016-11-20T11:29:39.838Z,660
2016-11-20T11:30:40.473Z,620
2016-11-20T11:31:40.165Z,560
2016-11-20T11:32:41.326Z,596
2016-11-20T11:33:39.865Z,576
2016-11-20T11:34:39.921Z,644
2016-11-20T11:35:40.291Z,548
2016-11-20T11:36:40.201Z,504
2016-11-20T11:37:40.307Z,572
2016-11-20T11:38:40.209Z,616
2016-11-20T11:39:40.466Z,560
2016-11-20T11:40:40.224Z,540
2016-11-20T11:41:40.318Z,584
2016-11-20T11:42:40.238Z,596
2016-11-20T11:43:41.056Z,588
2016-11-20T11:44:40.617Z,748
2016-11-20T11:45:39.739Z,824
2016-11-20T11:46:40.577Z,680
2016-11-20T11:47:39.963Z,900
2016-11-20T11:48:39.751Z,776
2016-11-20T11:49:40.600Z,772
2016-11-20T11:50:40.441Z,928
2016-11-20T11:51:40.354Z,740
2016-11-20T11:52:42.196Z,656
2016-11-20T11:53:40.052Z,616
2016-11-20T11:54:40.719Z,540
2016-11-20T11:55:40.373Z,460
2016-11-20T11:56:40.025Z,508
2016-11-20T11:57:40.028Z,552
2016-11-20T11:58:40.686Z,492
2016-11-20T11:59:40.042Z,472
2016-11-20T12:00:40.824Z,440
2016-11-20T12:01:40.391Z,448
2016-11-20T12:02:40.428Z,408
2016-11-20T12:03:41.432Z,456
2016-11-20T12:04:39.759Z,472
2016-11-20T12:05:40.698Z,472
2016-11-20T12:06:40.400Z,484
2016-11-20T12:07:40.725Z,504
2016-11-20T12:08:40.417Z,424
2016-11-20T12:09:40.106Z,344
2016-11-20T12:10:40.437Z,364
2016-11-20T12:11:40.801Z,296
2016-11-20T12:12:40.490Z,304
2016-11-20T12:13:40.548Z,288
2016-11-20T12:14:40.144Z,332
2016-11-20T12:15:40.770Z,324
2016-11-20T12:16:40.832Z,312
2016-11-20T12:17:40.503Z,332
2016-11-20T12:18:41.420Z,348
2016-11-20T12:19:40.899Z,324
2016-11-20T12:20:40.496Z,384
2016-11-20T12:21:40.237Z,388
2016-11-20T12:22:40.819Z,428
2016-11-20T12:23:40.201Z,400
2016-11-20T12:24:40.261Z,456
2016-11-20T12:25:40.863Z,444
2016-11-20T12:26:40.217Z,396
2016-11-20T12:27:40.600Z,328
2016-11-20T12:28:40.230Z,332
2016-11-20T12:29:41.816Z,372
2016-11-20T12:30:40.614Z,320
2016-11-20T12:31:40.621Z,304
2016-11-20T12:32:40.622Z,320
2016-11-20T12:33:40.577Z,312
2016-11-20T12:34:40.593Z,344
2016-11-20T12:35:40.327Z,304
2016-11-20T12:36:40.706Z,280
2016-11-20T12:37:40.974Z,268
2016-11-20T12:38:41.022Z,232
2016-11-20T12:39:40.668Z,212
2016-11-20T12:40:41.536Z,184
2016-11-20T12:41:40.948Z,220
2016-11-20T12:42:40.379Z,272
2016-11-20T12:43:40.646Z,280
2016-11-20T12:44:40.075Z,236
2016-11-20T12:45:40.661Z,180
2016-11-20T12:46:40.352Z,148
2016-11-20T12:47:40.460Z,116
2016-11-20T12:48:40.681Z,140
2016-11-20T12:49:40.629Z,176
2016-11-20T12:50:40.114Z,196
2016-11-20T12:51:42.150Z,180
2016-11-20T12:52:41.017Z,180
2016-11-20T12:53:40.450Z,188
2016-11-20T12:54:41.137Z,192
2016-11-20T12:55:40.144Z,200
2016-11-20T12:56:40.737Z,248
2016-11-20T12:57:40.733Z,268
2016-11-20T12:58:41.040Z,340
2016-11-20T12:59:40.681Z,452
2016-11-20T13:00:40.376Z,536
2016-11-20T13:01:40.764Z,468
2016-11-20T13:02:41.542Z,320
2016-11-20T13:03:40.776Z,304
2016-11-20T13:04:40.708Z,356
2016-11-20T13:05:40.911Z,392
2016-11-20T13:06:40.895Z,448
2016-11-20T13:07:41.116Z,380
2016-11-20T13:08:40.541Z,312
2016-11-20T13:09:40.553Z,336
2016-11-20T13:10:40.870Z,340
2016-11-20T13:11:40.299Z,248
2016-11-20T13:12:40.895Z,220
2016-11-20T13:13:41.837Z,220
2016-11-20T13:14:41.159Z,236
2016-11-20T13:15:40.897Z,224
2016-11-20T13:16:40.546Z,196
2016-11-20T13:17:41.181Z,212
2016-11-20T13:18:40.867Z,304
2016-11-20T13:19:41.028Z,404
2016-11-20T13:20:40.936Z,520
2016-11-20T13:21:40.940Z,396
2016-11-20T13:22:40.892Z,316
2016-11-20T13:23:40.997Z,344
2016-11-20T13:24:41.658Z,396
2016-11-20T13:25:41.280Z,440
2016-11-20T13:26:40.906Z,360
2016-11-20T13:27:40.951Z,268
2016-11-20T13:28:40.670Z,248
2016-11-20T13:29:40.973Z,300
2016-11-20T13:30:40.759Z,292
2016-11-20T13:31:40.949Z,344
2016-11-20T13:32:40.956Z,320
2016-11-20T13:33:40.650Z,268
2016-11-20T13:34:41.015Z,240
2016-11-20T13:35:42.041Z,280
2016-11-20T13:36:41.033Z,332
2016-11-20T13:37:40.559Z,420
2016-11-20T13:38:41.045Z,344
2016-11-20T13:39:40.790Z,300
2016-11-20T13:40:41.017Z,308
2016-11-20T13:41:40.697Z,360
2016-11-20T13:42:41.024Z,384
2016-11-20T13:43:41.076Z,352
2016-11-20T13:44:41.082Z,360
2016-11-20T13:45:40.826Z,392
2016-11-20T13:46:42.039Z,392
2016-11-20T13:47:40.791Z,408
2016-11-20T13:48:41.056Z,392
2016-11-20T13:49:41.371Z,352
2016-11-20T13:50:40.805Z,348
2016-11-20T13:51:41.480Z,284
2016-11-20T13:52:41.131Z,256
2016-11-20T13:53:40.776Z,256
2016-11-20T13:54:41.093Z,268
2016-11-20T13:55:40.788Z,300
2016-11-20T13:56:41.528Z,220
2016-11-20T13:57:42.234Z,160
2016-11-20T13:58:41.173Z,160
2016-11-20T13:59:41.125Z,136
2016-11-20T14:00:41.445Z,164
2016-11-20T14:01:42.554Z,164
2016-11-20T14:02:41.509Z,176
2016-11-20T14:03:41.151Z,220
2016-11-20T14:04:40.894Z,220
2016-11-20T14:05:41.200Z,200
2016-11-20T14:06:40.909Z,228
2016-11-20T14:07:41.589Z,300
2016-11-20T14:08:42.350Z,288
2016-11-20T14:09:41.505Z,248
2016-11-20T14:10:41.331Z,216
2016-11-20T14:11:40.579Z,216
2016-11-20T14:12:43.212Z,216
2016-11-20T14:13:41.220Z,232
2016-11-20T14:14:40.596Z,184
2016-11-20T14:15:41.592Z,196
2016-11-20T14:16:41.528Z,228
2016-11-20T14:17:40.927Z,256
2016-11-20T14:18:41.295Z,232